createdAt,value
2023-03-05T00:02:14.296Z,31.10
2023-03-05T00:04:42.752Z,29.40
2023-03-05T00:07:12.585Z,32.73
2023-03-05T00:09:41.165Z,34.33
2023-03-05T00:12:11.883Z,29.37
2023-03-05T00:14:40.417Z,29.80
2023-03-05T00:17:09.068Z,30.80
2023-03-05T00:19:37.693Z,30.27
2023-03-05T00:22:07.833Z,38.97
2023-03-05T00:24:38.925Z,35.93
2023-03-05T00:27:07.393Z,39.67
2023-03-05T00:29:37.720Z,41.67
2023-03-05T00:32:06.912Z,34.83
2023-03-05T00:34:36.619Z,30.33
2023-03-05T00:37:17.246Z,37.43
2023-03-05T00:39:54.792Z,32.27
2023-03-05T00:42:23.606Z,32.60
2023-03-05T00:44:54.042Z,28.20
2023-03-05T00:47:22.547Z,30.43
2023-03-05T00:49:51.050Z,28.83
2023-03-05T00:52:21.639Z,33.87
2023-03-05T00:54:50.756Z,27.20
2023-03-05T00:57:19.685Z,28.03
2023-03-05T00:59:48.817Z,27.23
2023-03-05T01:02:18.961Z,26.20
2023-03-05T01:04:50.210Z,29.00
2023-03-05T01:07:18.836Z,23.90
2023-03-05T01:09:47.824Z,30.93
2023-03-05T01:12:17.115Z,22.90
2023-03-05T01:14:45.806Z,28.73
2023-03-05T01:17:14.458Z,25.87
2023-03-05T01:19:44.626Z,24.50
2023-03-05T01:22:13.507Z,27.60
2023-03-05T01:24:41.962Z,25.90
2023-03-05T01:27:10.587Z,25.67
2023-03-05T01:29:39.221Z,23.87
2023-03-05T01:32:08.140Z,33.57
2023-03-05T01:34:37.997Z,24.33
2023-03-05T01:37:08.440Z,26.40
2023-03-05T01:39:39.776Z,22.93
2023-03-05T01:42:11.088Z,23.37
2023-03-05T01:44:39.662Z,16.10
2023-03-05T01:47:08.334Z,22.80
2023-03-05T01:49:38.513Z,25.47
2023-03-05T01:52:18.100Z,23.10
2023-03-05T01:54:49.732Z,21.50
2023-03-05T01:57:20.041Z,21.23
2023-03-05T01:59:54.795Z,24.17
2023-03-05T02:02:26.553Z,27.23
2023-03-05T02:04:57.606Z,37.67
2023-03-05T02:07:28.232Z,30.07
2023-03-05T02:09:56.800Z,24.63
2023-03-05T02:12:26.439Z,17.73
2023-03-05T02:15:00.574Z,24.97
2023-03-05T02:17:29.642Z,23.87
2023-03-05T02:20:06.024Z,20.10
2023-03-05T02:22:36.966Z,20.30
2023-03-05T02:25:20.920Z,23.07
2023-03-05T02:27:56.447Z,17.70
2023-03-05T02:30:25.323Z,18.57
2023-03-05T02:32:54.040Z,18.70
2023-03-05T02:35:22.930Z,18.87
2023-03-05T02:37:53.728Z,19.77
2023-03-05T02:40:22.373Z,21.20
2023-03-05T02:42:52.949Z,14.87
2023-03-05T02:45:21.834Z,19.73
2023-03-05T02:47:50.432Z,19.87
2023-03-05T02:50:19.308Z,17.43
2023-03-05T02:52:48.519Z,15.63
2023-03-05T02:55:18.820Z,16.43
2023-03-05T02:57:47.384Z,16.73
2023-03-05T03:00:16.831Z,17.27
2023-03-05T03:02:45.673Z,22.43
2023-03-05T03:05:16.662Z,13.50
2023-03-05T03:07:45.649Z,17.77
2023-03-05T03:10:14.540Z,15.30
2023-03-05T03:12:46.327Z,14.13
2023-03-05T03:15:16.870Z,15.60
2023-03-05T03:17:46.277Z,17.60
2023-03-05T03:20:17.357Z,20.47
2023-03-05T03:22:46.805Z,13.67
2023-03-05T03:25:40.191Z,14.90
2023-03-05T03:28:11.764Z,17.60
2023-03-05T03:30:42.372Z,10.33
2023-03-05T03:33:11.143Z,15.10
2023-03-05T03:35:39.943Z,18.73
2023-03-05T03:38:08.750Z,12.70
2023-03-05T03:40:37.705Z,17.23
2023-03-05T03:43:08.743Z,14.93
2023-03-05T03:45:42.927Z,16.13
2023-03-05T03:48:12.424Z,33.10
2023-03-05T03:50:44.473Z,31.73
2023-03-05T03:53:14.648Z,23.37
2023-03-05T03:55:46.692Z,20.30
2023-03-05T03:58:16.950Z,19.27
2023-03-05T04:00:50.069Z,18.43
2023-03-05T04:03:18.643Z,16.33
2023-03-05T04:05:50.289Z,14.57
2023-03-05T04:08:18.831Z,18.00
2023-03-05T04:10:47.514Z,20.83
2023-03-05T04:13:16.194Z,17.57
2023-03-05T04:15:47.642Z,25.03
2023-03-05T04:18:19.005Z,20.43
2023-03-05T04:20:47.747Z,18.97
2023-03-05T04:23:16.782Z,18.23
2023-03-05T04:25:45.704Z,16.70
2023-03-05T04:28:17.972Z,18.83
2023-03-05T04:30:54.197Z,17.30
2023-03-05T04:33:24.325Z,16.40
2023-03-05T04:35:53.963Z,14.87
2023-03-05T04:38:22.665Z,14.10
2023-03-05T04:40:56.665Z,15.10
2023-03-05T04:43:25.498Z,21.63
2023-03-05T04:45:57.546Z,16.83
2023-03-05T04:48:26.584Z,15.20
2023-03-05T04:50:55.052Z,15.93
2023-03-05T04:53:23.667Z,16.60
2023-03-05T04:55:54.717Z,20.90
2023-03-05T04:58:23.818Z,18.37
2023-03-05T05:01:07.273Z,19.87
2023-03-05T05:03:36.080Z,14.93
2023-03-05T05:06:05.407Z,18.20
2023-03-05T05:08:34.071Z,15.03
2023-03-05T05:11:07.004Z,16.20
2023-03-05T05:13:36.106Z,16.17
2023-03-05T05:16:09.967Z,19.67
2023-03-05T05:18:38.885Z,13.80
2023-03-05T05:21:11.013Z,13.77
2023-03-05T05:23:39.710Z,15.47
2023-03-05T05:26:10.107Z,14.53
2023-03-05T05:28:39.392Z,12.73
2023-03-05T05:31:13.924Z,14.37
2023-03-05T05:33:43.047Z,13.20
2023-03-05T05:36:17.100Z,16.73
2023-03-05T05:38:45.437Z,11.67
2023-03-05T05:41:16.631Z,18.37
2023-03-05T05:43:45.435Z,14.33
2023-03-05T05:46:17.194Z,10.90
2023-03-05T05:48:46.000Z,17.60
2023-03-05T05:51:16.152Z,15.53
2023-03-05T05:53:45.069Z,15.40
2023-03-05T05:56:16.728Z,18.20
2023-03-05T05:58:47.994Z,20.63
2023-03-05T06:01:24.961Z,16.20
2023-03-05T06:03:53.968Z,18.10
2023-03-05T06:06:27.232Z,13.33
2023-03-05T06:08:56.117Z,13.60
2023-03-05T06:11:25.037Z,14.33
2023-03-05T06:13:53.504Z,17.50
2023-03-05T06:16:25.707Z,15.37
2023-03-05T06:18:54.560Z,18.97
2023-03-05T06:21:24.494Z,16.23
2023-03-05T06:23:53.877Z,20.20
2023-03-05T06:26:23.622Z,16.47
2023-03-05T06:28:53.874Z,16.67
2023-03-05T06:31:25.941Z,16.43
2023-03-05T06:33:56.741Z,17.33
2023-03-05T06:36:27.440Z,18.00
2023-03-05T06:38:56.237Z,14.03
2023-03-05T06:41:26.954Z,17.20
2023-03-05T06:43:56.848Z,16.53
2023-03-05T06:46:28.588Z,17.70
2023-03-05T06:48:58.659Z,18.50
2023-03-05T06:51:29.193Z,18.17
2023-03-05T06:54:00.456Z,28.80
2023-03-05T06:56:31.132Z,19.30
2023-03-05T06:59:01.084Z,24.07
2023-03-05T07:01:31.036Z,15.93
2023-03-05T07:04:03.276Z,19.20
2023-03-05T07:06:34.915Z,18.97
2023-03-05T07:09:11.052Z,22.87
2023-03-05T07:11:42.900Z,28.37
2023-03-05T07:14:11.370Z,19.80
2023-03-05T07:16:41.684Z,20.00
2023-03-05T07:19:11.187Z,18.30
2023-03-05T07:21:40.228Z,18.27
2023-03-05T07:24:13.468Z,18.17
2023-03-05T07:26:43.429Z,22.00
2023-03-05T07:29:12.217Z,21.60
2023-03-05T07:31:42.325Z,23.47
2023-03-05T07:34:11.813Z,21.17
2023-03-05T07:36:43.256Z,19.83
2023-03-05T07:41:57.477Z,35.57
2023-03-05T07:44:26.106Z,33.47
2023-03-05T07:46:58.469Z,28.17
2023-03-05T07:49:27.196Z,27.30
2023-03-05T07:51:56.031Z,19.37
2023-03-05T07:54:24.511Z,18.73
2023-03-05T07:56:52.979Z,19.70
2023-03-05T07:59:21.984Z,19.90
2023-03-05T08:01:50.507Z,23.93
2023-03-05T08:04:20.416Z,22.80
2023-03-05T08:06:50.101Z,19.93
2023-03-05T08:09:19.304Z,20.50
2023-03-05T08:11:48.042Z,18.80
2023-03-05T08:14:17.151Z,21.80
2023-03-05T08:16:48.306Z,21.27
2023-03-05T08:19:16.857Z,17.97
2023-03-05T08:21:48.212Z,21.03
2023-03-05T08:24:16.554Z,20.80
2023-03-05T08:26:45.477Z,19.87
2023-03-05T08:29:14.047Z,20.77
2023-03-05T08:31:46.877Z,19.90
2023-03-05T08:34:15.674Z,23.13
2023-03-05T08:36:44.772Z,17.53
2023-03-05T08:39:14.822Z,15.33
2023-03-05T08:41:45.850Z,18.17
2023-03-05T08:44:14.568Z,25.93
2023-03-05T08:46:46.327Z,22.27
2023-03-05T08:49:14.992Z,25.20
2023-03-05T08:51:44.104Z,23.27
2023-03-05T08:54:12.646Z,24.43
2023-03-05T08:56:43.324Z,20.03
2023-03-05T08:59:15.950Z,26.57
2023-03-05T09:01:44.662Z,23.43
2023-03-05T09:04:13.150Z,24.90
2023-03-05T09:06:41.773Z,23.37
2023-03-05T09:09:11.026Z,18.33
2023-03-05T09:11:40.234Z,22.43
2023-03-05T09:14:10.255Z,28.13
2023-03-05T09:16:41.128Z,21.80
2023-03-05T09:19:12.366Z,23.73
2023-03-05T09:21:42.865Z,23.90
2023-03-05T09:24:12.506Z,25.27
2023-03-05T09:26:42.474Z,29.63
2023-03-05T09:29:12.749Z,26.47
2023-03-05T09:31:48.847Z,23.77
2023-03-05T09:34:17.506Z,21.30
2023-03-05T09:36:46.638Z,19.43
2023-03-05T09:39:15.179Z,25.53
2023-03-05T09:42:01.563Z,19.73
2023-03-05T09:44:39.180Z,21.37
2023-03-05T09:47:21.760Z,20.63
2023-03-05T09:49:54.913Z,23.67
2023-03-05T09:52:25.670Z,24.07
2023-03-05T09:54:56.415Z,19.40
2023-03-05T09:57:28.773Z,24.77
2023-03-05T10:00:01.511Z,20.10
2023-03-05T10:02:32.937Z,19.30
2023-03-05T10:05:05.583Z,38.63
2023-03-05T10:07:36.268Z,27.50
2023-03-05T10:10:06.978Z,24.37
2023-03-05T10:12:42.888Z,27.00
2023-03-05T10:15:16.593Z,24.67
2023-03-05T10:17:56.328Z,19.00
2023-03-05T10:21:01.039Z,21.00
2023-03-05T10:24:05.398Z,21.63
2023-03-05T10:26:58.884Z,22.30
2023-03-05T10:29:47.779Z,21.43
2023-03-05T10:32:32.891Z,25.10
2023-03-05T10:35:17.966Z,20.80
2023-03-05T10:38:04.940Z,22.23
2023-03-05T10:40:38.331Z,16.30
2023-03-05T10:43:21.188Z,22.00
2023-03-05T10:45:52.226Z,18.63
2023-03-05T10:48:30.790Z,15.97
2023-03-05T10:51:02.881Z,20.50
2023-03-05T10:53:34.575Z,26.37
2023-03-05T10:56:08.384Z,12.37
2023-03-05T10:58:38.337Z,15.93
2023-03-05T11:01:22.434Z,16.90
2023-03-05T11:03:55.712Z,18.13
2023-03-05T11:09:32.450Z,16.90
2023-03-05T11:12:18.527Z,18.03
2023-03-05T11:14:49.352Z,14.47
2023-03-05T11:17:34.158Z,12.93
2023-03-05T11:20:36.899Z,15.83
2023-03-05T11:23:08.118Z,15.00
2023-03-05T11:25:37.659Z,15.80
2023-03-05T11:28:06.547Z,12.50
2023-03-05T11:30:38.107Z,11.90
2023-03-05T11:33:17.822Z,14.53
2023-03-05T11:35:48.769Z,14.33
2023-03-05T11:38:20.754Z,12.40
2023-03-05T11:40:50.066Z,11.93
2023-03-05T11:43:20.543Z,15.63
2023-03-05T11:45:52.551Z,10.83
2023-03-05T11:48:23.324Z,13.10
2023-03-05T11:50:56.152Z,8.53
2023-03-05T11:53:28.583Z,8.33
2023-03-05T11:56:00.921Z,9.67
2023-03-05T11:58:33.372Z,12.33
2023-03-05T12:01:02.735Z,12.30
2023-03-05T12:03:35.208Z,8.93
2023-03-05T12:06:12.088Z,11.33
2023-03-05T12:08:44.151Z,11.90
2023-03-05T12:11:17.845Z,13.00
2023-03-05T12:13:49.796Z,12.10
2023-03-05T12:16:34.120Z,13.47
2023-03-05T12:19:18.098Z,14.13
2023-03-05T12:22:17.050Z,12.23
2023-03-05T12:24:45.799Z,14.67
2023-03-05T12:27:18.911Z,15.73
2023-03-05T12:29:52.403Z,13.87
2023-03-05T12:33:01.115Z,20.50
2023-03-05T12:35:37.197Z,21.83
2023-03-05T12:38:31.188Z,17.50
2023-03-05T12:41:35.953Z,20.90
2023-03-05T12:44:26.549Z,26.97
2023-03-05T12:47:23.914Z,19.70
2023-03-05T12:49:52.525Z,11.97
2023-03-05T12:52:28.464Z,14.63
2023-03-05T12:55:20.451Z,17.23
2023-03-05T12:57:51.446Z,14.87
2023-03-05T13:00:26.652Z,10.77
2023-03-05T13:02:59.060Z,9.40
2023-03-05T13:05:35.464Z,11.33
2023-03-05T13:08:16.319Z,14.20
2023-03-05T13:10:52.447Z,11.70
2023-03-05T13:13:21.652Z,14.80
2023-03-05T13:15:51.465Z,14.10
2023-03-05T13:18:21.881Z,19.40
2023-03-05T13:20:56.636Z,12.87
2023-03-05T13:23:26.690Z,13.77
2023-03-05T13:26:03.847Z,15.27
2023-03-05T13:28:33.803Z,12.23
2023-03-05T13:31:05.892Z,11.73
2023-03-05T13:33:37.526Z,18.50
2023-03-05T13:36:07.596Z,14.60
2023-03-05T13:38:46.511Z,13.97
2023-03-05T13:41:23.410Z,13.30
2023-03-05T13:43:53.884Z,12.27
2023-03-05T13:46:28.149Z,14.53
2023-03-05T13:48:56.887Z,14.30
2023-03-05T13:51:26.018Z,13.37
2023-03-05T13:53:55.136Z,14.13
2023-03-05T13:56:25.313Z,14.23
2023-03-05T13:58:59.662Z,17.13
2023-03-05T14:01:30.967Z,16.23
2023-03-05T14:04:02.203Z,15.87
2023-03-05T14:06:31.155Z,13.33
2023-03-05T14:09:08.586Z,16.60
2023-03-05T14:11:38.858Z,15.00
2023-03-05T14:14:10.117Z,13.37
2023-03-05T14:16:38.868Z,15.20
2023-03-05T14:19:09.385Z,13.20
2023-03-05T14:21:46.615Z,10.70
2023-03-05T14:24:20.260Z,16.00
2023-03-05T14:26:53.075Z,16.53
2023-03-05T14:29:25.781Z,14.20
2023-03-05T14:31:57.006Z,15.97
2023-03-05T14:34:33.778Z,17.23
2023-03-05T14:37:05.492Z,17.13
2023-03-05T14:39:46.585Z,13.07
2023-03-05T14:42:38.631Z,13.30
2023-03-05T14:45:21.563Z,15.30
2023-03-05T14:47:51.903Z,16.53
2023-03-05T14:50:22.245Z,10.17
2023-03-05T14:52:55.196Z,12.63
2023-03-05T14:55:25.072Z,12.47
2023-03-05T14:58:04.420Z,12.50
2023-03-05T15:00:33.779Z,17.47
2023-03-05T15:03:03.324Z,16.97
2023-03-05T15:05:32.653Z,17.63
2023-03-05T15:08:01.198Z,15.23
2023-03-05T15:10:30.246Z,13.07
2023-03-05T15:13:00.639Z,11.57
2023-03-05T15:15:29.184Z,9.73
2023-03-05T15:17:58.360Z,17.93
2023-03-05T15:20:29.121Z,15.87
2023-03-05T15:22:57.828Z,13.30
2023-03-05T15:25:27.068Z,11.60
2023-03-05T15:27:55.571Z,14.77
2023-03-05T15:30:28.592Z,14.17
2023-03-05T15:33:01.086Z,14.13
2023-03-05T15:35:29.934Z,12.03
2023-03-05T15:37:59.035Z,12.27
2023-03-05T15:40:28.838Z,13.43
2023-03-05T15:42:57.862Z,10.93
2023-03-05T15:45:31.492Z,12.30
2023-03-05T15:48:00.118Z,13.20
2023-03-05T15:50:32.026Z,10.40
2023-03-05T15:53:16.562Z,14.47
2023-03-05T15:55:46.088Z,13.13
2023-03-05T15:58:16.097Z,10.73
2023-03-05T16:00:49.235Z,10.83
2023-03-05T16:03:17.647Z,13.30
2023-03-05T16:05:46.286Z,9.17
2023-03-05T16:08:15.023Z,12.93
2023-03-05T16:10:43.999Z,12.83
2023-03-05T16:13:15.254Z,11.60
2023-03-05T16:15:47.461Z,10.60
2023-03-05T16:18:18.980Z,11.13
2023-03-05T16:20:49.444Z,11.27
2023-03-05T16:23:25.735Z,9.90
2023-03-05T16:25:54.240Z,10.07
2023-03-05T16:28:23.129Z,13.30
2023-03-05T16:31:01.237Z,7.60
2023-03-05T16:33:34.004Z,10.80
2023-03-05T16:36:32.159Z,10.67
2023-03-05T16:39:01.613Z,11.43
2023-03-05T16:41:33.042Z,16.00
2023-03-05T16:44:02.060Z,11.20
2023-03-05T16:46:56.644Z,6.50
2023-03-05T16:49:26.997Z,21.60
2023-03-05T16:51:56.701Z,15.17
2023-03-05T16:54:29.728Z,11.57
2023-03-05T16:57:04.343Z,15.60
2023-03-05T16:59:33.296Z,12.90
2023-03-05T17:02:01.930Z,14.00
2023-03-05T17:04:32.947Z,10.47
2023-03-05T17:07:03.667Z,14.03
2023-03-05T17:09:33.086Z,11.80
2023-03-05T17:12:01.576Z,11.97
2023-03-05T17:14:30.765Z,11.07
2023-03-05T17:16:59.224Z,10.53
2023-03-05T17:19:27.962Z,23.17
2023-03-05T17:21:59.447Z,17.87
2023-03-05T17:24:29.043Z,14.30
2023-03-05T17:26:57.687Z,13.83
2023-03-05T17:29:26.613Z,15.47
2023-03-05T17:32:00.065Z,12.10
2023-03-05T17:34:35.861Z,15.63
2023-03-05T17:37:12.215Z,14.70
2023-03-05T17:39:41.431Z,15.60
2023-03-05T17:42:10.145Z,15.90
2023-03-05T17:44:39.007Z,20.43
2023-03-05T17:47:07.672Z,20.00
2023-03-05T17:49:36.262Z,17.80
2023-03-05T17:52:04.870Z,13.00
2023-03-05T17:54:35.315Z,10.20
2023-03-05T17:57:04.864Z,9.83
2023-03-05T17:59:39.101Z,12.47
2023-03-05T18:02:08.054Z,11.90
2023-03-05T18:04:41.114Z,10.83
2023-03-05T18:07:10.229Z,12.67
2023-03-05T18:09:46.033Z,8.57
2023-03-05T18:12:16.187Z,9.87
2023-03-05T18:14:46.213Z,12.93
2023-03-05T18:17:18.751Z,17.40
2023-03-05T18:19:47.398Z,14.37
2023-03-05T18:22:16.385Z,11.17
2023-03-05T18:24:46.562Z,6.70
2023-03-05T18:27:15.592Z,11.83
2023-03-05T18:29:45.231Z,9.70
2023-03-05T18:32:17.725Z,10.37
2023-03-05T18:35:47.358Z,15.00
2023-03-05T18:38:16.238Z,11.20
2023-03-05T18:40:51.532Z,16.17
2023-03-05T18:43:22.489Z,16.87
2023-03-05T18:45:51.984Z,14.03
2023-03-05T18:48:20.802Z,23.07
2023-03-05T18:50:51.700Z,17.37
2023-03-05T18:53:23.969Z,13.27
2023-03-05T18:55:56.046Z,14.43
2023-03-05T18:58:26.136Z,11.27
2023-03-05T19:00:57.377Z,11.23
2023-03-05T19:03:28.492Z,19.10
2023-03-05T19:05:57.102Z,12.87
2023-03-05T19:08:35.406Z,11.50
2023-03-05T19:11:05.966Z,14.83
2023-03-05T19:13:40.019Z,12.67
2023-03-05T19:16:12.734Z,10.77
2023-03-05T19:18:49.855Z,13.10
2023-03-05T19:21:20.407Z,14.13
2023-03-05T19:23:49.175Z,15.63
2023-03-05T19:26:19.779Z,13.43
2023-03-05T19:28:51.192Z,12.37
2023-03-05T19:31:19.997Z,13.37
2023-03-05T19:33:48.587Z,16.50
2023-03-05T19:36:20.073Z,14.07
2023-03-05T19:38:54.911Z,15.13
2023-03-05T19:41:26.464Z,14.33
2023-03-05T19:43:56.069Z,15.50
2023-03-05T19:46:25.310Z,17.77
2023-03-05T19:48:54.015Z,11.40
2023-03-05T19:51:24.867Z,11.70
2023-03-05T19:53:54.203Z,11.03
2023-03-05T19:56:24.558Z,12.27
2023-03-05T19:58:54.675Z,10.13
2023-03-05T20:01:26.135Z,21.67
2023-03-05T20:03:55.902Z,11.00
2023-03-05T20:06:27.269Z,18.33
2023-03-05T20:09:01.780Z,12.57
2023-03-05T20:11:37.842Z,10.30
2023-03-05T20:14:10.329Z,15.43
2023-03-05T20:16:39.424Z,13.00
2023-03-05T20:19:11.431Z,17.83
2023-03-05T20:21:42.100Z,11.67
2023-03-05T20:24:13.784Z,24.00
2023-03-05T20:26:45.121Z,10.40
2023-03-05T20:29:17.522Z,16.33
2023-03-05T20:35:36.269Z,16.33
2023-03-05T20:38:26.529Z,17.70
2023-03-05T20:40:59.116Z,12.13
2023-03-05T20:43:32.473Z,10.03
2023-03-05T20:46:02.483Z,12.53
2023-03-05T20:48:34.341Z,18.03
2023-03-05T20:51:12.395Z,16.70
2023-03-05T20:53:41.523Z,14.03
2023-03-05T20:56:10.448Z,13.73
2023-03-05T20:58:40.650Z,10.93
2023-03-05T21:01:10.001Z,13.43
2023-03-05T21:03:39.020Z,14.77
2023-03-05T21:06:08.245Z,11.43
2023-03-05T21:08:40.137Z,8.27
2023-03-05T21:11:10.305Z,11.20
2023-03-05T21:13:44.604Z,15.43
2023-03-05T21:16:21.418Z,21.03
2023-03-05T21:18:52.723Z,23.87
2023-03-05T21:21:21.834Z,15.97
2023-03-05T21:23:50.617Z,18.73
2023-03-05T21:26:19.720Z,11.10
2023-03-05T21:28:50.520Z,9.17
2023-03-05T21:31:22.635Z,10.77
2023-03-05T21:33:51.787Z,8.77
2023-03-05T21:36:22.364Z,8.30
2023-03-05T21:38:51.219Z,9.13
2023-03-05T21:41:20.784Z,12.03
2023-03-05T21:43:51.056Z,9.40
2023-03-05T21:46:19.804Z,10.77
2023-03-05T21:48:48.893Z,5.87
2023-03-05T21:51:19.432Z,8.73
2023-03-05T21:53:47.926Z,7.47
2023-03-05T21:56:24.254Z,8.53
2023-03-05T21:58:54.729Z,7.67
2023-03-05T22:01:23.578Z,11.70
2023-03-05T22:03:52.419Z,5.40
2023-03-05T22:06:21.887Z,4.27
2023-03-05T22:08:50.906Z,7.30
2023-03-05T22:11:21.130Z,9.53
2023-03-05T22:13:50.542Z,5.30
2023-03-05T22:16:26.149Z,7.50
2023-03-05T22:18:55.218Z,5.23
2023-03-05T22:21:27.094Z,8.67
2023-03-05T22:23:57.523Z,10.10
2023-03-05T22:26:32.910Z,3.70
2023-03-05T22:29:05.292Z,3.30
2023-03-05T22:31:44.891Z,4.43
2023-03-05T22:34:13.554Z,7.60
2023-03-05T22:36:45.050Z,11.40
2023-03-05T22:39:13.517Z,8.90
2023-03-05T22:41:42.419Z,4.77
2023-03-05T22:44:11.175Z,4.50
2023-03-05T22:46:41.437Z,7.80
2023-03-05T22:49:11.561Z,6.33
2023-03-05T22:51:40.104Z,7.90
2023-03-05T22:54:08.951Z,12.67
2023-03-05T22:56:38.230Z,5.40
2023-03-05T22:59:06.965Z,6.03
2023-03-05T23:01:35.819Z,7.27
2023-03-05T23:04:18.496Z,5.60
2023-03-05T23:06:48.786Z,5.07
2023-03-05T23:09:17.152Z,2.93
2023-03-05T23:11:45.625Z,6.20
2023-03-05T23:14:14.305Z,6.27
2023-03-05T23:16:45.099Z,3.30
2023-03-05T23:19:15.142Z,5.43
2023-03-05T23:21:43.937Z,7.10
2023-03-05T23:24:12.665Z,9.57
2023-03-05T23:26:41.562Z,8.13
2023-03-05T23:29:10.111Z,6.63
2023-03-05T23:31:39.390Z,6.53
2023-03-05T23:34:07.775Z,8.73
2023-03-05T23:36:38.218Z,9.07
2023-03-05T23:39:06.584Z,4.90
2023-03-05T23:41:35.613Z,6.87
2023-03-05T23:44:04.069Z,8.87
2023-03-05T23:46:32.811Z,7.23
2023-03-05T23:49:01.464Z,11.73
2023-03-05T23:51:37.070Z,5.80
2023-03-05T23:54:07.495Z,7.53
2023-03-05T23:56:36.426Z,5.40
2023-03-05T23:59:05.316Z,9.13
